Time;durP1;ratioP1;P1;durP2;ratioP2;P2;SDS_P1;SDS_P2;PMS_P1;PMS_P2;Temp;Humidity;BMP_temperature;BMP_pressure;BME280_temperature;BME280_humidity;BME280_pressure;Samples;Min_cycle;Max_cycle;Signal;HPM_P1;HPM_P2
2021/07/19 00:01:08;;;;;;;6.18;4.68;;;;;;;18.85;80.03;100396.72;4942842;28;20039;-71
2021/07/19 00:03:34;;;;;;;7.88;4.60;;;;;;;18.77;80.70;100399.22;4949852;28;20019;-71
2021/07/19 00:06:00;;;;;;;7.82;4.43;;;;;;;18.69;80.70;100390.53;4952917;28;20107;-71
2021/07/19 00:08:25;;;;;;;7.75;4.05;;;;;;;18.61;80.75;100399.31;4945030;28;20039;-71
2021/07/19 00:10:52;;;;;;;7.32;4.45;;;;;;;18.51;80.87;100397.44;4946442;28;20031;-71
2021/07/19 00:13:18;;;;;;;8.68;4.50;;;;;;;18.44;81.78;100395.00;4956249;28;20102;-71
2021/07/19 00:15:46;;;;;;;13.55;5.30;;;;;;;18.52;82.38;100393.63;4956403;28;20059;-71
2021/07/19 00:18:12;;;;;;;12.55;5.00;;;;;;;18.51;81.44;100392.00;4939175;28;20532;-71
2021/07/19 00:20:38;;;;;;;7.28;4.88;;;;;;;18.39;82.28;100391.50;4943384;28;20039;-71
2021/07/19 00:23:04;;;;;;;8.68;5.20;;;;;;;18.35;82.03;100393.16;4925640;29;20405;-71
2021/07/19 00:25:29;;;;;;;10.85;5.10;;;;;;;18.34;82.78;100395.03;4916719;29;20027;-71
2021/07/19 00:27:55;;;;;;;9.10;4.72;;;;;;;18.33;82.49;100390.69;4933414;29;20024;-71
2021/07/19 00:30:24;;;;;;;12.88;4.63;;;;;;;18.31;82.86;100390.16;4932115;29;20040;-71
2021/07/19 00:32:50;;;;;;;7.20;4.70;;;;;;;18.26;82.63;100388.28;4926258;29;20074;-71
2021/07/19 00:35:16;;;;;;;6.25;5.07;;;;;;;18.26;83.30;100382.81;4927551;29;20031;-71
2021/07/19 00:37:42;;;;;;;11.68;6.13;;;;;;;18.28;83.08;100380.63;4932697;29;20039;-72
2021/07/19 00:40:20;;;;;;;10.18;5.88;;;;;;;18.22;83.60;100383.63;4927522;29;20046;-72
2021/07/19 00:42:46;;;;;;;8.88;5.70;;;;;;;18.20;83.88;100377.66;4928066;29;20062;-71
2021/07/19 00:45:15;;;;;;;11.48;6.13;;;;;;;18.16;84.06;100379.31;4897853;29;20136;-71
2021/07/19 00:47:43;;;;;;;14.80;5.70;;;;;;;18.13;83.96;100373.31;4930665;29;20818;-71
2021/07/19 00:50:10;;;;;;;8.65;5.53;;;;;;;18.09;84.05;100368.72;4928900;29;20062;-71
2021/07/19 00:52:37;;;;;;;13.55;5.93;;;;;;;18.09;84.19;100371.44;4927973;29;20051;-71
2021/07/19 00:55:05;;;;;;;8.93;5.60;;;;;;;18.05;84.30;100375.81;4930327;29;20095;-72
2021/07/19 00:57:32;;;;;;;14.73;5.57;;;;;;;17.99;83.96;100373.06;4939474;29;20455;-71
2021/07/19 01:00:01;;;;;;;12.45;5.78;;;;;;;17.93;84.77;100370.63;4934032;29;20143;-71
2021/07/19 01:02:29;;;;;;;8.35;5.80;;;;;;;17.91;84.96;100375.53;4928443;29;20036;-71
2021/07/19 01:04:55;;;;;;;12.25;5.75;;;;;;;17.88;84.69;100365.19;4928786;29;20452;-71
2021/07/19 01:07:24;;;;;;;8.48;5.57;;;;;;;17.83;84.58;100355.13;4916770;29;20562;-71
2021/07/19 01:09:51;;;;;;;13.98;5.75;;;;;;;17.82;84.50;100364.41;4934647;29;20047;-71
2021/07/19 01:12:17;;;;;;;9.95;5.38;;;;;;;17.81;84.33;100360.03;4944511;29;20046;-71
2021/07/19 01:14:43;;;;;;;8.63;5.20;;;;;;;17.77;84.40;100361.69;4928253;29;20055;-72
2021/07/19 01:17:08;;;;;;;8.23;5.60;;;;;;;17.73;84.17;100357.88;4923643;29;20050;-72
2021/07/19 01:19:37;;;;;;;8.63;5.15;;;;;;;17.74;85.03;100354.84;4927040;29;21158;-71
2021/07/19 01:22:11;;;;;;;10.05;5.30;;;;;;;17.75;85.10;100361.94;4933330;29;20156;-72
2021/07/19 01:24:47;;;;;;;10.25;5.90;;;;;;;17.70;84.39;100351.88;4930671;29;20774;-72
2021/07/19 01:27:53;;;;;;;10.00;5.43;;;;;;;17.64;84.17;100358.41;4905193;29;20485;-72
2021/07/19 01:30:19;;;;;;;9.43;5.57;;;;;;;17.62;84.80;100357.88;4907559;29;20095;-72
2021/07/19 01:32:46;;;;;;;8.85;5.35;;;;;;;17.64;83.89;100352.97;4936123;29;20102;-71
2021/07/19 01:35:14;;;;;;;8.73;5.32;;;;;;;17.64;84.50;100360.31;4934305;29;20032;-71
2021/07/19 01:37:42;;;;;;;10.30;5.55;;;;;;;17.60;85.39;100354.59;4945125;29;20039;-72
2021/07/19 01:40:08;;;;;;;11.27;5.20;;;;;;;17.44;84.67;100358.44;4933381;29;20035;-72
2021/07/19 01:42:36;;;;;;;12.23;5.32;;;;;;;17.26;85.85;100352.44;4936053;29;20039;-71
2021/07/19 01:45:04;;;;;;;9.98;5.57;;;;;;;17.25;86.00;100350.81;4930735;29;20032;-71
2021/07/19 01:47:31;;;;;;;10.27;5.93;;;;;;;17.31;87.10;100357.09;4926801;29;20046;-72
2021/07/19 01:49:58;;;;;;;20.90;6.47;;;;;;;17.44;86.76;100347.53;4919730;29;20527;-71
2021/07/19 01:52:25;;;;;;;10.20;5.28;;;;;;;17.44;86.40;100351.09;4921504;29;20726;-71
2021/07/19 01:54:52;;;;;;;11.60;5.07;;;;;;;17.37;85.09;100343.19;4935428;29;20614;-71
2021/07/19 01:57:18;;;;;;;10.57;5.65;;;;;;;17.23;86.03;100342.09;4941385;29;20054;-71
2021/07/19 01:59:44;;;;;;;13.30;5.93;;;;;;;17.14;86.55;100343.75;4934862;29;20481;-71
2021/07/19 02:02:11;;;;;;;9.82;6.00;;;;;;;17.20;87.22;100351.66;4930497;29;20047;-71
2021/07/19 02:04:36;;;;;;;12.90;6.05;;;;;;;17.17;86.78;100345.91;4933557;29;20168;-71
2021/07/19 02:07:03;;;;;;;10.43;5.60;;;;;;;17.04;86.22;100345.38;4931050;29;20110;-71
2021/07/19 02:09:31;;;;;;;8.30;5.80;;;;;;;16.93;86.25;100343.69;4923206;29;20382;-71
2021/07/19 02:12:01;;;;;;;10.10;5.90;;;;;;;16.92;86.95;100350.22;4938553;29;20106;-71
2021/07/19 02:14:28;;;;;;;10.02;5.70;;;;;;;16.92;86.85;100353.78;4937878;29;20095;-71
2021/07/19 02:16:55;;;;;;;8.68;5.68;;;;;;;16.89;86.35;100350.78;4921185;29;20095;-71
2021/07/19 02:19:24;;;;;;;6.78;5.20;;;;;;;16.80;86.97;100353.22;4936217;29;20027;-72
2021/07/19 02:21:49;;;;;;;13.75;5.90;;;;;;;16.71;87.25;100349.34;4948698;28;20039;-72
2021/07/19 02:24:17;;;;;;;9.57;5.63;;;;;;;16.63;87.42;100343.38;4946508;28;20043;-72
2021/07/19 02:26:44;;;;;;;10.52;5.40;;;;;;;16.58;87.85;100337.09;4950399;28;20047;-71
2021/07/19 02:29:10;;;;;;;10.68;6.03;;;;;;;16.58;87.21;100340.63;4947139;29;20039;-72
2021/07/19 02:31:37;;;;;;;9.80;5.70;;;;;;;16.55;87.64;100343.88;4939690;28;20034;-71
2021/07/19 02:34:04;;;;;;;12.43;7.00;;;;;;;16.56;89.40;100340.09;4954142;28;20054;-71
2021/07/19 02:36:29;;;;;;;9.10;6.18;;;;;;;16.52;88.21;100341.72;4953669;28;20039;-72
2021/07/19 02:38:56;;;;;;;11.68;6.43;;;;;;;16.58;89.65;100339.84;4959125;28;20059;-71
2021/07/19 02:41:27;;;;;;;14.52;6.75;;;;;;;16.66;89.42;100336.59;4946924;28;20115;-71
2021/07/19 02:43:56;;;;;;;12.00;6.00;;;;;;;16.60;87.43;100337.66;4953000;28;20046;-71
2021/07/19 02:46:24;;;;;;;9.77;6.72;;;;;;;16.48;87.98;100335.16;4960721;28;20382;-71
2021/07/19 02:48:55;;;;;;;12.35;5.90;;;;;;;16.39;88.41;100341.13;4953185;28;20106;-71
2021/07/19 02:51:22;;;;;;;9.77;6.55;;;;;;;16.37;89.21;100332.41;4946169;28;20118;-72
2021/07/19 02:53:50;;;;;;;9.48;5.90;;;;;;;16.43;88.65;100327.00;4942009;28;20035;-71
2021/07/19 02:56:17;;;;;;;11.50;6.38;;;;;;;16.42;89.12;100333.50;4940664;28;20032;-71
2021/07/19 02:58:43;;;;;;;9.40;6.63;;;;;;;16.39;88.94;100327.53;4944370;28;20078;-72
2021/07/19 03:01:13;;;;;;;13.32;6.20;;;;;;;16.40;88.80;100322.94;4954766;28;20046;-71
2021/07/19 03:03:39;;;;;;;11.25;6.25;;;;;;;16.39;88.35;100319.38;4954062;28;20035;-71
2021/07/19 03:06:09;;;;;;;11.98;6.55;;;;;;;16.30;89.06;100320.97;4938857;28;20042;-71
2021/07/19 03:08:38;;;;;;;7.20;5.90;;;;;;;16.27;89.11;100321.50;4945661;28;20527;-71
2021/07/19 03:11:09;;;;;;;9.00;5.57;;;;;;;16.32;89.45;100318.81;4946436;28;20039;-71
2021/07/19 03:13:37;;;;;;;9.50;5.72;;;;;;;16.40;89.78;100322.94;4934922;28;20087;-71
2021/07/19 03:16:04;;;;;;;10.18;6.60;;;;;;;16.40;89.85;100322.94;4952247;28;20043;-71
2021/07/19 03:18:32;;;;;;;8.88;5.85;;;;;;;16.41;89.37;100323.72;4958682;28;20122;-71
2021/07/19 03:20:58;;;;;;;9.32;5.80;;;;;;;16.33;88.57;100322.38;4945815;28;20039;-71
2021/07/19 03:23:26;;;;;;;10.18;6.20;;;;;;;16.25;89.28;100323.69;4954021;28;20062;-71
2021/07/19 03:25:53;;;;;;;9.48;5.68;;;;;;;16.20;89.03;100327.22;4946057;28;20027;-72
2021/07/19 03:28:20;;;;;;;11.70;6.38;;;;;;;16.20;88.95;100324.50;4951074;28;20042;-71
2021/07/19 03:30:48;;;;;;;8.07;5.80;;;;;;;16.13;89.17;100326.63;4961928;28;20031;-71
2021/07/19 03:33:14;;;;;;;9.07;5.95;;;;;;;16.08;88.53;100321.19;4947969;28;20130;-71
2021/07/19 03:35:40;;;;;;;7.43;5.80;;;;;;;16.04;88.82;100329.03;4944726;28;20370;-71
2021/07/19 03:38:07;;;;;;;12.95;6.00;;;;;;;15.99;89.13;100323.56;4960485;28;20106;-71
2021/07/19 03:40:33;;;;;;;7.53;5.93;;;;;;;15.96;89.79;100329.53;4954475;28;20031;-72
2021/07/19 03:43:00;;;;;;;13.27;7.20;;;;;;;15.93;90.15;100327.34;4933649;28;20078;-71
2021/07/19 03:45:27;;;;;;;10.63;6.75;;;;;;;15.92;90.41;100323.00;4951651;28;20034;-71
2021/07/19 03:47:54;;;;;;;15.43;7.60;;;;;;;16.01;90.94;100321.41;4953283;28;20502;-71
2021/07/19 03:50:20;;;;;;;13.18;7.35;;;;;;;16.06;89.52;100320.63;4943168;28;20133;-72
2021/07/19 03:52:47;;;;;;;8.35;6.72;;;;;;;15.97;89.83;100314.88;4953297;28;20138;-71
2021/07/19 03:55:15;;;;;;;15.57;7.57;;;;;;;15.93;89.66;100320.03;4957538;28;20519;-71
2021/07/19 03:57:41;;;;;;;15.95;7.70;;;;;;;15.98;90.56;100324.66;4951034;28;20106;-71
2021/07/19 04:00:16;;;;;;;12.13;7.28;;;;;;;15.94;89.62;100324.38;4937115;28;20142;-71
2021/07/19 04:02:44;;;;;;;23.75;7.22;;;;;;;15.98;90.50;100321.94;4957579;28;20142;-71
2021/07/19 04:05:14;;;;;;;9.57;7.30;;;;;;;15.94;89.74;100320.84;4962529;28;20031;-71
2021/07/19 04:07:43;;;;;;;11.25;7.00;;;;;;;15.81;90.18;100320.19;4945797;28;20532;-71
2021/07/19 04:10:12;;;;;;;10.43;7.22;;;;;;;15.79;90.17;100326.97;4947159;28;20034;-71
2021/07/19 04:12:43;;;;;;;14.20;8.38;;;;;;;15.71;90.50;100320.16;4960704;28;20034;-72
2021/07/19 04:15:09;;;;;;;13.52;8.60;;;;;;;15.78;91.94;100322.63;4935698;28;20043;-71
2021/07/19 04:17:36;;;;;;;11.50;7.95;;;;;;;15.78;90.65;100323.44;4945171;29;20034;-71
2021/07/19 04:20:07;;;;;;;13.05;7.97;;;;;;;15.73;90.70;100325.28;4946081;28;20031;-71
2021/07/19 04:22:34;;;;;;;13.02;8.52;;;;;;;15.68;90.69;100323.38;4952230;28;20126;-71
2021/07/19 04:25:02;;;;;;;13.38;8.43;;;;;;;15.69;90.83;100326.91;4960649;28;20039;-71
2021/07/19 04:27:28;;;;;;;16.33;9.40;;;;;;;15.72;92.17;100321.78;4952021;28;20035;-71
2021/07/19 04:29:53;;;;;;;13.70;8.73;;;;;;;15.76;91.63;100313.91;4954632;28;20035;-71
2021/07/19 04:32:20;;;;;;;12.55;7.90;;;;;;;15.75;91.30;100329.41;4957208;28;20126;-71
2021/07/19 04:34:49;;;;;;;12.63;7.68;;;;;;;15.79;91.36;100325.06;4953133;28;20067;-71
2021/07/19 04:37:15;;;;;;;14.60;7.93;;;;;;;15.77;90.66;100331.84;4935890;28;20706;-71
2021/07/19 04:39:41;;;;;;;13.50;7.65;;;;;;;15.76;90.99;100322.88;4946448;28;20039;-71
2021/07/19 04:42:08;;;;;;;13.55;8.38;;;;;;;15.78;90.67;100320.72;4939206;28;20043;-71
2021/07/19 04:44:34;;;;;;;11.40;7.90;;;;;;;15.80;90.76;100325.88;4946784;28;20035;-71
2021/07/19 04:47:00;;;;;;;13.73;7.75;;;;;;;15.93;91.31;100320.03;4953218;28;20043;-71
2021/07/19 04:49:27;;;;;;;17.13;7.85;;;;;;;15.99;90.75;100318.16;4960223;28;20027;-71
2021/07/19 04:51:54;;;;;;;12.65;8.18;;;;;;;16.02;90.47;100312.19;4941551;28;20046;-71
2021/07/19 04:54:37;;;;;;;13.43;7.35;;;;;;;16.06;90.16;100321.44;4936679;28;20101;-71
2021/07/19 04:57:07;;;;;;;13.32;7.10;;;;;;;16.12;89.78;100319.56;4964184;28;20035;-71
2021/07/19 04:59:43;;;;;;;13.32;6.57;;;;;;;16.26;89.26;100319.88;4951725;28;20039;-71
2021/07/19 05:02:12;;;;;;;12.95;7.00;;;;;;;16.29;89.43;100319.34;4936768;28;20027;-71
2021/07/19 05:04:39;;;;;;;11.48;7.15;;;;;;;16.32;89.53;100326.97;4952571;28;20043;-71
2021/07/19 05:07:06;;;;;;;11.10;7.22;;;;;;;16.34;89.33;100316.66;4955659;28;20027;-71
2021/07/19 05:09:34;;;;;;;10.70;7.03;;;;;;;16.36;89.01;100324.53;4957765;28;20079;-71
2021/07/19 05:12:00;;;;;;;9.35;7.57;;;;;;;16.43;89.49;100335.16;4952804;28;20110;-71
2021/07/19 05:14:26;;;;;;;14.30;8.40;;;;;;;16.49;89.37;100325.94;4960615;28;20048;-71
2021/07/19 05:16:52;;;;;;;20.10;10.02;;;;;;;16.55;89.70;100327.56;4965736;28;20105;-71
2021/07/19 05:19:18;;;;;;;16.85;10.38;;;;;;;16.60;89.08;100324.88;4943674;28;20078;-72
2021/07/19 05:21:44;;;;;;;17.23;9.70;;;;;;;16.67;89.12;100319.19;4938945;28;20821;-71
2021/07/19 05:24:10;;;;;;;18.17;10.07;;;;;;;16.88;88.15;100328.19;4955758;28;20050;-71
2021/07/19 05:26:37;;;;;;;16.83;9.63;;;;;;;17.03;87.22;100319.25;4951201;28;20023;-71
2021/07/19 05:29:04;;;;;;;15.98;9.30;;;;;;;17.15;86.45;100315.44;4940541;28;20062;-75
2021/07/19 05:31:30;;;;;;;15.52;10.77;;;;;;;17.23;86.54;100321.16;4958251;28;20046;-69
2021/07/19 05:33:56;;;;;;;14.85;10.32;;;;;;;17.31;85.97;100322.50;4949278;28;20062;-69
2021/07/19 05:36:21;;;;;;;16.73;10.50;;;;;;;17.37;85.56;100323.31;4941561;28;20482;-69
2021/07/19 05:38:47;;;;;;;14.05;10.77;;;;;;;17.37;85.25;100326.06;4949307;28;20397;-70
2021/07/19 05:41:13;;;;;;;19.90;11.77;;;;;;;17.44;85.12;100325.75;4957716;28;20137;-70
2021/07/19 05:43:40;;;;;;;21.92;11.65;;;;;;;17.41;84.83;100327.13;4951525;28;20051;-70
2021/07/19 05:46:06;;;;;;;17.25;10.80;;;;;;;17.74;84.48;100322.16;4949693;28;20489;-70
2021/07/19 05:48:32;;;;;;;22.45;10.90;;;;;;;18.00;82.78;100322.13;4947338;28;20115;-70
2021/07/19 05:50:59;;;;;;;21.05;11.02;;;;;;;18.21;81.98;100322.88;4942802;28;20031;-70
2021/07/19 05:53:25;;;;;;;24.40;10.20;;;;;;;18.43;80.14;100324.38;4943669;28;20036;-70
2021/07/19 05:55:51;;;;;;;17.75;9.82;;;;;;;18.56;79.91;100322.97;4945391;28;20035;-70
2021/07/19 05:58:18;;;;;;;16.25;9.98;;;;;;;18.93;78.49;100321.63;4944140;28;20118;-70
2021/07/19 06:00:44;;;;;;;15.63;9.63;;;;;;;19.35;76.43;100316.63;4944043;28;20047;-71
2021/07/19 06:03:09;;;;;;;17.55;9.40;;;;;;;19.81;73.80;100312.63;4939764;28;20028;-70
2021/07/19 06:05:36;;;;;;;16.58;9.25;;;;;;;20.02;73.51;100313.25;4929859;28;20525;-69
2021/07/19 06:08:05;;;;;;;17.02;8.80;;;;;;;19.92;72.54;100312.53;4941646;28;20118;-69
2021/07/19 06:10:31;;;;;;;19.85;9.05;;;;;;;19.20;75.93;100319.50;4944848;28;20031;-68
2021/07/19 06:12:56;;;;;;;17.88;9.43;;;;;;;18.88;77.07;100313.47;4955051;28;20027;-69
2021/07/19 06:15:22;;;;;;;19.15;10.27;;;;;;;18.66;78.58;100316.63;4946772;28;20482;-70
2021/07/19 06:17:47;;;;;;;21.85;10.23;;;;;;;18.48;78.98;100310.72;4951368;28;20070;-69
2021/07/19 06:20:30;;;;;;;16.52;8.88;;;;;;;18.39;79.64;100312.41;4954634;28;20058;-68
2021/07/19 06:23:02;;;;;;;14.27;8.82;;;;;;;18.40;79.34;100319.50;4944500;28;20032;-69
2021/07/19 06:25:33;;;;;;;15.35;9.05;;;;;;;18.39;79.37;100313.22;4940850;28;20062;-69
2021/07/19 06:28:00;;;;;;;14.98;9.00;;;;;;;18.31;79.61;100323.91;4944758;28;20031;-70
2021/07/19 06:30:27;;;;;;;20.20;9.30;;;;;;;18.27;79.93;100316.28;4951053;28;20035;-69
2021/07/19 06:32:53;;;;;;;12.95;9.00;;;;;;;18.45;78.92;100324.91;4945165;28;20157;-69
2021/07/19 06:35:19;;;;;;;16.65;9.50;;;;;;;18.53;79.29;100320.78;4950082;28;20114;-69
2021/07/19 06:37:44;;;;;;;19.88;9.10;;;;;;;18.46;78.97;100321.09;4948790;28;20034;-69
2021/07/19 06:40:11;;;;;;;16.48;9.25;;;;;;;18.56;79.18;100320.25;4952627;28;20432;-69
2021/07/19 06:42:36;;;;;;;13.50;8.48;;;;;;;18.72;78.46;100326.41;4949644;28;20062;-69
2021/07/19 06:45:04;;;;;;;18.15;9.55;;;;;;;19.16;76.92;100322.81;4949012;28;20039;-69
2021/07/19 06:47:30;;;;;;;16.02;9.00;;;;;;;19.24;76.27;100324.13;4951124;28;20039;-69
2021/07/19 06:49:57;;;;;;;14.75;8.82;;;;;;;19.07;77.06;100321.81;4953559;28;20066;-69
2021/07/19 06:52:24;;;;;;;20.98;9.32;;;;;;;19.28;76.81;100325.19;4950312;28;20094;-69
2021/07/19 06:54:50;;;;;;;17.85;8.27;;;;;;;19.37;76.09;100330.03;4948955;28;20041;-70
2021/07/19 06:57:17;;;;;;;16.95;8.35;;;;;;;19.20;76.75;100324.97;4968536;28;20035;-69
2021/07/19 06:59:43;;;;;;;13.07;7.93;;;;;;;19.19;76.96;100324.16;4609654;28;10000110;-71
2021/07/19 07:02:08;;;;;;;20.00;8.95;;;;;;;19.19;76.44;100321.44;4953528;28;20038;-70
2021/07/19 07:04:34;;;;;;;17.23;8.80;;;;;;;19.24;75.38;100318.66;4924298;29;20564;-70
2021/07/19 07:06:59;;;;;;;13.07;8.38;;;;;;;19.19;76.33;100320.63;4946628;28;20058;-68
2021/07/19 07:09:25;;;;;;;14.98;7.93;;;;;;;19.12;77.04;100315.50;4946575;28;20136;-69
2021/07/19 07:11:50;;;;;;;13.52;7.82;;;;;;;19.37;75.93;100316.38;4949397;28;20041;-70
2021/07/19 07:14:16;;;;;;;13.60;8.52;;;;;;;19.45;75.64;100315.75;4940173;28;20130;-71
2021/07/19 07:16:42;;;;;;;16.10;8.48;;;;;;;19.47;74.71;100321.72;4950249;28;20114;-71
2021/07/19 07:19:07;;;;;;;14.45;8.10;;;;;;;19.46;75.23;100322.84;4941995;28;20129;-68
2021/07/19 07:21:33;;;;;;;16.58;8.20;;;;;;;19.34;74.75;100312.28;4940073;28;20090;-68
2021/07/19 07:23:58;;;;;;;20.88;9.05;;;;;;;19.25;75.91;100317.56;4959907;28;20030;-69
2021/07/19 07:26:26;;;;;;;20.02;8.85;;;;;;;19.42;75.68;100319.06;4962052;28;20031;-69
2021/07/19 07:28:52;;;;;;;15.40;9.82;;;;;;;19.45;75.13;100321.19;4949678;28;20860;-69
2021/07/19 07:31:19;;;;;;;19.30;9.65;;;;;;;19.28;75.85;100324.34;4962607;28;20081;-69
2021/07/19 07:33:44;;;;;;;16.25;8.73;;;;;;;19.54;75.19;100316.75;4948843;28;20027;-68
2021/07/19 07:36:10;;;;;;;18.20;8.93;;;;;;;19.55;73.61;100318.38;4955861;28;20381;-68
2021/07/19 07:38:36;;;;;;;22.90;8.90;;;;;;;19.62;73.94;100325.41;4953868;28;20031;-70
2021/07/19 07:41:02;;;;;;;16.48;8.48;;;;;;;19.77;73.15;100327.19;4953861;28;20054;-69
2021/07/19 07:43:28;;;;;;;18.65;9.18;;;;;;;19.83;72.67;100315.09;4946539;28;20091;-69
2021/07/19 07:45:54;;;;;;;18.92;8.55;;;;;;;19.87;72.18;100322.41;4954582;28;20035;-69
2021/07/19 07:48:19;;;;;;;19.95;7.68;;;;;;;20.00;71.88;100320.91;4953000;28;20023;-69
2021/07/19 07:50:45;;;;;;;21.73;8.35;;;;;;;19.98;72.04;100320.41;4950595;28;20669;-69
2021/07/19 07:53:11;;;;;;;18.35;8.52;;;;;;;19.94;71.23;100319.34;4945370;28;20501;-70
2021/07/19 07:55:36;;;;;;;18.88;7.80;;;;;;;20.06;71.69;100312.66;4939607;28;20103;-69
2021/07/19 07:58:04;;;;;;;17.70;7.90;;;;;;;20.14;70.46;100309.28;4950391;28;20059;-68
2021/07/19 08:00:30;;;;;;;18.95;8.93;;;;;;;20.07;70.30;100317.81;4950048;28;20855;-70
2021/07/19 08:02:56;;;;;;;17.27;7.50;;;;;;;20.08;70.82;100319.44;4948043;28;20110;-71
2021/07/19 08:05:22;;;;;;;15.90;7.20;;;;;;;20.13;70.01;100316.66;4953742;28;20114;-71
2021/07/19 08:07:48;;;;;;;13.65;6.75;;;;;;;20.19;69.60;100320.16;4952728;28;20118;-71
2021/07/19 08:10:14;;;;;;;13.20;5.95;;;;;;;20.26;69.58;100312.41;4944930;28;20043;-70
2021/07/19 08:12:43;;;;;;;20.27;5.70;;;;;;;20.43;68.61;100320.13;4946254;28;20042;-71
2021/07/19 08:15:10;;;;;;;13.75;5.30;;;;;;;20.53;67.45;100310.13;4961861;28;20036;-71
2021/07/19 08:17:36;;;;;;;12.27;5.30;;;;;;;20.65;66.98;100320.63;4962737;28;20038;-71
2021/07/19 08:20:03;;;;;;;13.77;5.25;;;;;;;20.70;66.54;100315.06;4960462;28;20031;-69
2021/07/19 08:22:31;;;;;;;10.30;4.80;;;;;;;20.90;66.46;100313.97;4967089;28;20105;-70
2021/07/19 08:24:57;;;;;;;23.20;5.20;;;;;;;20.79;65.43;100312.50;4961059;28;20030;-69
2021/07/19 08:27:23;;;;;;;11.45;4.53;;;;;;;20.85;66.10;100314.06;4948940;28;20750;-69
2021/07/19 08:29:49;;;;;;;10.77;4.03;;;;;;;20.94;64.65;100319.66;4967958;28;20031;-70
2021/07/19 08:32:16;;;;;;;7.47;3.30;;;;;;;20.86;63.43;100302.00;4965728;28;20061;-69
2021/07/19 08:34:45;;;;;;;16.38;4.88;;;;;;;21.04;64.27;100309.38;4951208;28;20043;-68
2021/07/19 08:37:12;;;;;;;27.90;5.55;;;;;;;21.15;65.12;100315.47;4950572;28;20053;-68
2021/07/19 08:39:38;;;;;;;15.57;5.00;;;;;;;21.29;64.85;100311.97;4968829;28;20067;-68
2021/07/19 08:42:04;;;;;;;14.57;4.65;;;;;;;21.41;62.91;100311.47;4953948;28;20043;-68
2021/07/19 08:44:31;;;;;;;15.23;4.65;;;;;;;21.27;62.07;100311.47;4953255;28;20035;-68
2021/07/19 08:46:56;;;;;;;14.73;4.80;;;;;;;21.28;62.08;100311.16;4955746;28;20140;-69
2021/07/19 08:49:22;;;;;;;10.95;4.43;;;;;;;21.22;62.90;100309.63;4952085;28;20110;-69
2021/07/19 08:51:48;;;;;;;8.63;3.90;;;;;;;21.23;62.10;100300.28;4960521;28;20135;-69
2021/07/19 08:54:13;;;;;;;20.13;4.95;;;;;;;21.42;62.25;100302.16;4948247;28;20039;-68
2021/07/19 08:56:40;;;;;;;13.35;4.30;;;;;;;21.43;60.77;100292.81;4932910;29;20051;-68
2021/07/19 08:59:07;;;;;;;16.90;4.95;;;;;;;21.39;62.27;100295.34;4944064;28;20035;-69
2021/07/19 09:01:35;;;;;;;10.73;4.13;;;;;;;21.73;61.17;100294.19;4963430;28;20039;-69
2021/07/19 09:04:00;;;;;;;10.35;3.92;;;;;;;21.82;61.15;100293.47;4959970;28;20031;-69
2021/07/19 09:06:26;;;;;;;24.42;4.82;;;;;;;21.85;59.52;100299.16;4948968;28;20038;-69
2021/07/19 09:08:53;;;;;;;13.63;3.75;;;;;;;22.16;57.81;100289.47;4951332;28;20118;-69
2021/07/19 09:11:21;;;;;;;13.38;3.60;;;;;;;22.18;58.62;100290.00;4946071;28;20059;-69
2021/07/19 09:14:01;;;;;;;17.38;4.30;;;;;;;22.27;57.47;100285.41;4952564;28;20039;-69
2021/07/19 09:16:41;;;;;;;11.60;3.85;;;;;;;22.27;58.17;100279.13;4942420;28;20844;-69
2021/07/19 09:19:09;;;;;;;16.27;4.18;;;;;;;22.44;58.26;100282.00;4604841;28;10001562;-70
2021/07/19 09:21:36;;;;;;;13.18;4.43;;;;;;;22.40;56.67;100277.44;4962260;28;20411;-71
2021/07/19 09:24:10;;;;;;;16.90;4.63;;;;;;;22.32;56.55;100285.28;4959163;28;20027;-71
2021/07/19 09:26:37;;;;;;;12.70;3.70;;;;;;;22.45;56.69;100288.31;4934073;28;20039;-71
2021/07/19 09:29:08;;;;;;;15.70;4.07;;;;;;;22.47;57.16;100284.16;4955897;28;20038;-71
2021/07/19 09:31:41;;;;;;;8.02;3.70;;;;;;;22.65;55.62;100282.34;4960717;28;20031;-71
2021/07/19 09:34:14;;;;;;;;;;;;;;;22.79;56.04;100287.81;4937211;28;20051;-71
2021/07/19 09:37:06;;;;;;;15.20;4.27;;;;;;;22.81;55.72;100279.25;4960003;28;19922;-71
2021/07/19 09:39:40;;;;;;;11.60;3.78;;;;;;;22.71;55.60;100284.97;4947988;28;20050;-71
2021/07/19 09:42:14;;;;;;;16.92;3.55;;;;;;;22.81;54.84;100285.56;4956483;28;20101;-71
2021/07/19 09:44:42;;;;;;;11.80;4.15;;;;;;;22.81;54.19;100280.06;4954031;28;20047;-70
2021/07/19 09:47:11;;;;;;;14.68;4.07;;;;;;;22.93;54.64;100289.69;4957013;28;20074;-71
2021/07/19 09:49:37;;;;;;;15.00;3.88;;;;;;;22.97;54.44;100276.94;4958118;28;20026;-71
2021/07/19 09:52:06;;;;;;;12.98;3.65;;;;;;;23.02;54.88;100285.06;4954887;28;20047;-71
2021/07/19 09:54:41;;;;;;;10.25;3.60;;;;;;;23.15;55.08;100282.53;4955657;28;20070;-71
2021/07/19 09:57:07;;;;;;;11.45;3.65;;;;;;;23.05;54.79;100278.13;4964187;28;20035;-71
2021/07/19 09:59:35;;;;;;;11.48;3.90;;;;;;;23.02;55.57;100278.75;4956348;28;20042;-71
2021/07/19 10:02:01;;;;;;;12.07;3.63;;;;;;;23.18;53.51;100280.00;4959104;28;20394;-71
2021/07/19 10:04:27;;;;;;;17.23;3.70;;;;;;;23.15;53.87;100275.13;4960036;28;20480;-72
2021/07/19 10:06:58;;;;;;;9.52;3.55;;;;;;;23.24;55.30;100277.94;4963187;28;20028;-72
2021/07/19 10:09:24;;;;;;;13.10;3.58;;;;;;;23.36;53.25;100274.59;4952913;28;20034;-72
2021/07/19 10:11:52;;;;;;;16.92;3.55;;;;;;;23.60;53.29;100273.41;4958312;28;20027;-71
2021/07/19 10:14:33;;;;;;;8.43;3.42;;;;;;;23.64;52.64;100266.16;4958307;28;20138;-71
2021/07/19 10:17:00;;;;;;;13.82;3.53;;;;;;;23.90;52.76;100268.97;4964684;28;20031;-72
2021/07/19 10:19:26;;;;;;;11.52;3.50;;;;;;;24.08;50.56;100277.31;4946949;28;20031;-73
2021/07/19 10:21:53;;;;;;;12.40;3.53;;;;;;;24.06;50.84;100263.84;4956967;28;20044;-72
2021/07/19 10:24:20;;;;;;;12.07;3.65;;;;;;;24.00;50.90;100267.88;4957564;28;20066;-72
2021/07/19 10:26:50;;;;;;;14.00;3.60;;;;;;;24.07;51.22;100261.94;4960677;28;20098;-72
2021/07/19 10:29:17;;;;;;;12.38;3.35;;;;;;;24.11;50.60;100252.69;4961174;28;20042;-72
2021/07/19 10:31:44;;;;;;;17.15;3.45;;;;;;;24.04;50.64;100262.56;4956583;28;20031;-72
2021/07/19 10:34:11;;;;;;;19.90;4.05;;;;;;;24.39;51.62;100254.34;4958149;28;20401;-71
2021/07/19 10:36:51;;;;;;;10.30;3.53;;;;;;;24.46;50.08;100254.66;4953536;28;20074;-71
2021/07/19 10:39:37;;;;;;;7.75;2.80;;;;;;;24.56;50.35;100250.75;4938285;28;20073;-71
2021/07/19 10:42:08;;;;;;;11.68;3.38;;;;;;;24.57;50.82;100246.88;4958862;28;20038;-69
2021/07/19 10:44:36;;;;;;;19.25;3.15;;;;;;;24.63;50.34;100251.06;4940701;28;20039;-72
2021/07/19 10:47:21;;;;;;;17.80;3.63;;;;;;;24.66;50.16;100252.38;4952709;28;20110;-71
2021/07/19 10:49:58;;;;;;;10.10;3.67;;;;;;;24.78;49.50;100254.50;4947214;28;20039;-72
2021/07/19 10:52:37;;;;;;;13.18;3.45;;;;;;;24.40;51.07;100248.50;4945443;28;20059;-73
2021/07/19 10:55:04;;;;;;;20.17;3.55;;;;;;;24.68;50.29;100237.13;4954032;28;20038;-73
2021/07/19 10:57:35;;;;;;;17.02;3.75;;;;;;;24.89;49.87;100238.44;4951233;28;20035;-73
2021/07/19 11:00:10;;;;;;;10.40;3.63;;;;;;;24.96;50.57;100235.97;4952461;28;20043;-71
2021/07/19 11:02:35;;;;;;;11.05;3.88;;;;;;;24.75;50.13;100231.16;4954486;28;20034;-71
2021/07/19 11:05:01;;;;;;;13.05;3.83;;;;;;;24.65;49.65;100235.03;4958801;28;21723;-74
2021/07/19 11:07:38;;;;;;;13.20;3.85;;;;;;;24.60;50.85;100231.66;4948180;28;20139;-71
2021/07/19 11:10:13;;;;;;;12.95;3.72;;;;;;;24.75;51.93;100236.69;4944016;28;20043;-71
2021/07/19 11:12:53;;;;;;;14.77;3.50;;;;;;;24.91;50.01;100238.91;4953783;28;20031;-71
2021/07/19 11:15:21;;;;;;;13.57;4.15;;;;;;;24.79;50.15;100240.41;4949123;28;20038;-71
2021/07/19 11:17:49;;;;;;;16.98;4.28;;;;;;;24.85;50.19;100228.06;4958186;28;20066;-71
2021/07/19 11:20:15;;;;;;;21.27;3.85;;;;;;;24.94;49.70;100239.09;4939019;28;20059;-70
2021/07/19 11:22:42;;;;;;;12.70;4.07;;;;;;;24.89;50.41;100225.50;4949432;28;20042;-70